createdAt,value
2018-09-10T00:00:21.571Z,17.67
2018-09-10T00:02:52.109Z,17.58
2018-09-10T00:05:22.603Z,17.54
2018-09-10T00:07:53.127Z,17.45
2018-09-10T00:10:23.867Z,17.39
2018-09-10T00:12:54.479Z,17.31
2018-09-10T00:15:25.051Z,17.28
2018-09-10T00:17:55.601Z,17.24
2018-09-10T00:20:26.233Z,17.16
2018-09-10T00:22:56.937Z,17.10
2018-09-10T00:25:27.374Z,17.05
2018-09-10T00:27:59.108Z,17.04
2018-09-10T00:30:29.588Z,17.03
2018-09-10T00:33:00.227Z,17.11
2018-09-10T00:35:30.789Z,17.13
2018-09-10T00:38:01.360Z,17.14
2018-09-10T00:40:32.178Z,17.18
2018-09-10T00:43:02.790Z,17.17
2018-09-10T00:45:33.412Z,17.08
2018-09-10T00:48:04.000Z,17.03
2018-09-10T00:50:34.542Z,16.99
2018-09-10T00:53:05.775Z,16.95
2018-09-10T00:55:36.295Z,16.92
2018-09-10T00:58:06.783Z,16.86
2018-09-10T01:00:37.186Z,16.82
2018-09-10T01:03:07.601Z,16.78
2018-09-10T01:05:38.166Z,16.76
2018-09-10T01:08:08.618Z,16.75
2018-09-10T01:10:39.178Z,16.74
2018-09-10T01:13:09.785Z,16.72
2018-09-10T01:15:40.381Z,16.67
2018-09-10T01:18:10.820Z,16.62
2018-09-10T01:20:41.667Z,16.58
2018-09-10T01:23:12.586Z,16.56
2018-09-10T01:25:42.980Z,16.55
2018-09-10T01:28:13.362Z,16.57
2018-09-10T01:30:43.769Z,16.59
2018-09-10T01:33:19.150Z,16.61
2018-09-10T01:35:50.346Z,16.61
2018-09-10T01:38:21.802Z,16.62
2018-09-10T01:40:52.411Z,16.65
2018-09-10T01:43:23.023Z,16.70
2018-09-10T01:45:53.630Z,16.72
2018-09-10T01:48:24.481Z,16.69
2018-09-10T01:50:55.000Z,16.70
2018-09-10T01:53:25.439Z,16.68
2018-09-10T01:55:55.944Z,16.61
2018-09-10T01:58:26.383Z,16.53
2018-09-10T02:00:56.888Z,16.37
2018-09-10T02:03:27.208Z,16.11
2018-09-10T02:05:57.845Z,15.99
2018-09-10T02:08:28.461Z,15.94
2018-09-10T02:10:59.493Z,15.89
2018-09-10T02:13:30.013Z,15.87
2018-09-10T02:16:00.446Z,15.93
2018-09-10T02:18:30.998Z,15.97
2018-09-10T02:21:01.409Z,16.00
2018-09-10T02:23:31.964Z,16.05
2018-09-10T02:26:02.457Z,16.13
2018-09-10T02:28:33.017Z,16.12
2018-09-10T02:31:04.092Z,16.15
2018-09-10T02:33:34.468Z,16.17
2018-09-10T02:36:05.326Z,16.23
2018-09-10T02:38:36.653Z,16.22
2018-09-10T02:41:07.117Z,16.22
2018-09-10T02:43:37.633Z,16.19
2018-09-10T02:46:08.430Z,16.15
2018-09-10T02:48:38.943Z,16.08
2018-09-10T02:51:10.600Z,16.04
2018-09-10T02:53:40.915Z,16.01
2018-09-10T02:56:12.142Z,16.01
2018-09-10T02:58:42.535Z,16.03
2018-09-10T03:01:13.377Z,15.94
2018-09-10T03:03:44.209Z,15.83
2018-09-10T03:06:14.674Z,15.79
2018-09-10T03:08:45.169Z,15.75
2018-09-10T03:11:15.669Z,15.74
2018-09-10T03:13:46.197Z,15.76
2018-09-10T03:16:16.788Z,15.77
2018-09-10T03:18:47.585Z,15.78
2018-09-10T03:21:17.980Z,15.76
2018-09-10T03:23:48.319Z,15.72
2018-09-10T03:26:18.799Z,15.70
2018-09-10T03:28:49.394Z,15.68
2018-09-10T03:31:20.024Z,15.64
2018-09-10T03:33:50.905Z,15.59
2018-09-10T03:36:22.090Z,15.57
2018-09-10T03:38:52.575Z,15.55
2018-09-10T03:41:23.046Z,15.56
2018-09-10T03:43:53.461Z,15.59
2018-09-10T03:46:23.912Z,15.58
2018-09-10T03:48:54.373Z,15.55
2018-09-10T03:51:24.930Z,15.49
2018-09-10T03:53:55.456Z,15.41
2018-09-10T03:56:25.987Z,15.35
2018-09-10T03:58:56.501Z,15.35
2018-09-10T04:01:26.969Z,15.35
2018-09-10T04:03:57.367Z,15.33
2018-09-10T04:06:27.940Z,15.30
2018-09-10T04:08:58.697Z,15.31
2018-09-10T04:11:29.204Z,15.33
2018-09-10T04:13:59.517Z,15.38
2018-09-10T04:16:29.971Z,15.39
2018-09-10T04:19:00.501Z,15.38
2018-09-10T04:21:31.138Z,15.31
2018-09-10T04:24:01.611Z,15.26
2018-09-10T04:26:32.059Z,15.27
2018-09-10T04:29:02.647Z,15.30
2018-09-10T04:31:33.165Z,15.30
2018-09-10T04:34:03.644Z,15.32
2018-09-10T04:36:34.185Z,15.34
2018-09-10T04:39:06.872Z,15.36
2018-09-10T04:41:41.986Z,15.37
2018-09-10T04:44:12.361Z,15.33
2018-09-10T04:46:43.350Z,15.31
2018-09-10T04:49:13.755Z,15.31
2018-09-10T04:51:44.319Z,15.31
2018-09-10T04:54:14.778Z,15.38
2018-09-10T04:56:45.372Z,15.45
2018-09-10T04:59:15.799Z,15.45
2018-09-10T05:01:46.539Z,15.44
2018-09-10T05:04:17.109Z,15.41
2018-09-10T05:06:47.503Z,15.40
2018-09-10T05:09:18.122Z,15.39
2018-09-10T05:11:49.007Z,15.38
2018-09-10T05:14:19.817Z,15.39
2018-09-10T05:16:51.630Z,15.38
2018-09-10T05:19:22.578Z,15.36
2018-09-10T05:21:54.630Z,15.36
2018-09-10T05:24:25.285Z,15.46
2018-09-10T05:26:55.976Z,15.55
2018-09-10T05:29:26.375Z,15.64
2018-09-10T05:31:57.504Z,15.81
2018-09-10T05:34:28.227Z,16.13
2018-09-10T05:36:59.767Z,16.70
2018-09-10T05:39:30.313Z,17.33
2018-09-10T05:42:00.832Z,17.65
2018-09-10T05:44:31.274Z,18.10
2018-09-10T05:47:01.982Z,18.30
2018-09-10T05:49:32.478Z,18.94
2018-09-10T05:52:03.340Z,19.50
2018-09-10T05:54:33.821Z,19.80
2018-09-10T05:57:04.319Z,20.02
2018-09-10T05:59:34.733Z,20.49
2018-09-10T06:02:05.270Z,20.70
2018-09-10T06:04:36.423Z,20.96
2018-09-10T06:07:07.288Z,21.63
2018-09-10T06:09:37.799Z,22.01
2018-09-10T06:12:08.552Z,22.46
2018-09-10T06:14:38.982Z,22.91
2018-09-10T06:17:09.751Z,22.96
2018-09-10T06:19:40.381Z,23.35
2018-09-10T06:22:12.493Z,23.79
2018-09-10T06:24:43.118Z,24.24
2018-09-10T06:27:13.809Z,24.43
2018-09-10T06:29:44.368Z,24.57
2018-09-10T06:32:15.055Z,24.88
2018-09-10T06:34:45.725Z,25.21
2018-09-10T06:37:16.269Z,25.57
2018-09-10T06:39:47.097Z,25.88
2018-09-10T06:42:17.831Z,26.14
2018-09-10T06:44:48.579Z,26.12
2018-09-10T06:47:20.160Z,26.51
2018-09-10T06:49:51.915Z,26.65
2018-09-10T06:52:22.846Z,26.67
2018-09-10T06:54:53.546Z,26.98
2018-09-10T06:57:24.073Z,27.25
2018-09-10T06:59:56.319Z,27.78
2018-09-10T07:02:27.437Z,28.02
2018-09-10T07:04:58.949Z,28.25
2018-09-10T07:07:29.383Z,28.66
2018-09-10T07:09:59.911Z,29.20
2018-09-10T07:12:31.911Z,29.33
2018-09-10T07:15:02.842Z,28.87
2018-09-10T07:17:33.468Z,29.26
2018-09-10T07:20:04.496Z,29.26
2018-09-10T07:22:35.046Z,29.51
2018-09-10T07:25:06.059Z,29.74
2018-09-10T07:27:36.800Z,29.95
2018-09-10T07:30:08.263Z,30.35
2018-09-10T07:32:38.777Z,30.45
2018-09-10T07:35:09.343Z,30.90
2018-09-10T07:37:39.896Z,30.25
2018-09-10T07:40:10.591Z,29.99
2018-09-10T07:42:42.177Z,29.78
2018-09-10T07:45:12.815Z,29.51
2018-09-10T07:47:43.639Z,28.96
2018-09-10T07:50:15.669Z,29.50
2018-09-10T07:52:46.328Z,30.10
2018-09-10T07:55:16.823Z,30.61
2018-09-10T07:57:47.379Z,31.08
2018-09-10T08:00:19.192Z,31.56
2018-09-10T08:02:50.137Z,31.82
2018-09-10T08:05:21.121Z,32.23
2018-09-10T08:07:51.937Z,32.22
2018-09-10T08:10:22.826Z,32.42
2018-09-10T08:12:53.532Z,32.63
2018-09-10T08:15:24.002Z,32.69
2018-09-10T08:17:54.633Z,33.31
2018-09-10T08:20:25.423Z,33.03
2018-09-10T08:22:55.874Z,33.74
2018-09-10T08:25:26.340Z,33.30
2018-09-10T08:28:00.365Z,33.62
2018-09-10T08:30:31.259Z,33.74
2018-09-10T08:33:01.756Z,33.86
2018-09-10T08:35:32.230Z,34.53
2018-09-10T08:38:04.436Z,34.98
2018-09-10T08:40:35.764Z,35.41
2018-09-10T08:43:07.205Z,36.00
2018-09-10T08:45:41.022Z,35.83
2018-09-10T08:48:13.404Z,36.26
2018-09-10T08:50:44.088Z,36.47
2018-09-10T08:53:14.881Z,36.14
2018-09-10T08:55:46.024Z,36.24
2018-09-10T08:58:16.751Z,36.22
2018-09-10T09:00:47.988Z,36.50
2018-09-10T09:03:18.454Z,36.76
2018-09-10T09:05:50.731Z,35.71
2018-09-10T09:08:21.524Z,35.62
2018-09-10T09:10:52.857Z,35.95
2018-09-10T09:13:23.840Z,34.71
2018-09-10T09:15:54.782Z,33.88
2018-09-10T09:18:25.522Z,34.82
2018-09-10T09:20:56.642Z,36.57
2018-09-10T09:23:30.739Z,36.06
2018-09-10T09:26:02.941Z,36.78
2018-09-10T09:28:33.673Z,37.74
2018-09-10T09:31:04.393Z,37.95
2018-09-10T09:33:35.413Z,37.90
2018-09-10T09:36:11.338Z,38.01
2018-09-10T09:38:46.837Z,38.10
2018-09-10T09:41:22.476Z,38.41
2018-09-10T09:43:58.197Z,38.82
2018-09-10T09:46:28.927Z,37.71
2018-09-10T09:48:59.701Z,38.05
2018-09-10T09:51:30.468Z,38.41
2018-09-10T09:54:01.610Z,38.72
2018-09-10T09:56:32.964Z,38.82
2018-09-10T09:59:03.879Z,39.54
2018-09-10T10:01:45.338Z,39.30
2018-09-10T10:04:17.752Z,39.28
2018-09-10T10:06:50.318Z,39.13
2018-09-10T10:09:22.873Z,39.71
2018-09-10T10:11:54.642Z,39.30
2018-09-10T10:14:26.609Z,38.56
2018-09-10T10:16:59.385Z,38.81
2018-09-10T10:19:31.003Z,38.60
2018-09-10T10:22:04.352Z,39.10
2018-09-10T10:24:36.418Z,39.18
2018-09-10T10:27:09.653Z,37.63
2018-09-10T10:29:42.263Z,37.56
2018-09-10T10:32:14.724Z,37.42
2018-09-10T10:34:46.839Z,36.18
2018-09-10T10:37:21.497Z,36.03
2018-09-10T10:39:55.235Z,36.69
2018-09-10T10:42:28.320Z,37.06
2018-09-10T10:45:04.171Z,37.30
2018-09-10T10:47:36.694Z,37.27
2018-09-10T10:50:09.938Z,37.07
2018-09-10T10:52:41.737Z,36.59
2018-09-10T10:55:14.787Z,34.94
2018-09-10T10:57:48.378Z,35.73
2018-09-10T11:00:21.607Z,35.88
2018-09-10T11:02:54.119Z,36.42
2018-09-10T11:05:27.237Z,36.42
2018-09-10T11:07:58.542Z,36.06
2018-09-10T11:10:30.038Z,35.72
2018-09-10T11:13:00.918Z,35.10
2018-09-10T11:15:32.085Z,35.73
2018-09-10T11:18:04.686Z,36.32
2018-09-10T11:20:36.478Z,37.25
2018-09-10T11:23:08.409Z,38.06
2018-09-10T11:25:40.294Z,39.38
2018-09-10T11:28:12.223Z,38.61
2018-09-10T11:30:44.198Z,39.02
2018-09-10T11:33:17.134Z,39.40
2018-09-10T11:35:50.593Z,39.17
2018-09-10T11:38:23.040Z,39.51
2018-09-10T11:40:55.620Z,40.00
2018-09-10T11:43:29.791Z,40.26
2018-09-10T11:46:03.921Z,40.10
2018-09-10T11:48:40.819Z,39.97
2018-09-10T11:51:16.363Z,40.00
2018-09-10T11:53:50.009Z,40.55
2018-09-10T11:56:23.062Z,40.83
2018-09-10T11:58:58.229Z,41.16
2018-09-10T12:01:31.437Z,41.03
2018-09-10T12:04:05.677Z,40.60
2018-09-10T12:06:39.152Z,39.66
2018-09-10T12:09:14.098Z,39.68
2018-09-10T12:11:46.569Z,40.15
2018-09-10T12:14:22.382Z,39.70
2018-09-10T12:16:54.349Z,40.01
2018-09-10T12:19:25.321Z,40.12
2018-09-10T12:21:56.835Z,39.76
2018-09-10T12:24:27.930Z,39.85
2018-09-10T12:26:59.737Z,39.77
2018-09-10T12:29:33.947Z,39.14
2018-09-10T12:32:06.309Z,38.81
2018-09-10T12:34:40.312Z,39.43
2018-09-10T12:37:11.046Z,39.68
2018-09-10T12:39:42.729Z,39.76
2018-09-10T12:42:13.701Z,39.45
2018-09-10T12:44:44.523Z,39.68
2018-09-10T12:47:16.266Z,39.86
2018-09-10T12:49:48.454Z,39.49
2018-09-10T12:52:30.387Z,39.90
2018-09-10T12:55:07.087Z,39.57
2018-09-10T12:57:42.285Z,39.91
2018-09-10T13:00:13.650Z,39.65
2018-09-10T13:02:57.578Z,39.41
2018-09-10T13:05:35.186Z,39.13
2018-09-10T13:08:06.902Z,38.96
2018-09-10T13:10:38.851Z,38.75
2018-09-10T13:13:09.629Z,38.84
2018-09-10T13:15:41.766Z,39.44
2018-09-10T13:18:13.649Z,38.97
2018-09-10T13:20:45.853Z,38.85
2018-09-10T13:23:20.432Z,38.60
2018-09-10T13:25:53.364Z,38.59
2018-09-10T13:28:27.233Z,38.40
2018-09-10T13:30:58.159Z,38.49
2018-09-10T13:33:29.051Z,38.61
2018-09-10T13:36:00.505Z,38.22
2018-09-10T13:38:31.930Z,38.50
2018-09-10T13:41:02.641Z,38.75
2018-09-10T13:43:33.495Z,38.80
2018-09-10T13:46:04.357Z,38.36
2018-09-10T13:48:35.111Z,38.32
2018-09-10T13:51:07.980Z,38.40
2018-09-10T13:53:40.123Z,38.67
2018-09-10T13:56:10.781Z,37.85
2018-09-10T13:58:41.409Z,37.30
2018-09-10T14:01:12.211Z,35.82
2018-09-10T14:03:44.802Z,36.11
2018-09-10T14:06:15.484Z,36.34
2018-09-10T14:08:46.369Z,36.87
2018-09-10T14:11:18.381Z,37.31
2018-09-10T14:13:49.297Z,37.68
2018-09-10T14:16:19.981Z,37.79
2018-09-10T14:18:51.012Z,38.04
2018-09-10T14:21:21.678Z,38.02
2018-09-10T14:23:53.604Z,38.23
2018-09-10T14:26:24.601Z,38.58
2018-09-10T14:28:56.450Z,38.84
2018-09-10T14:31:27.685Z,39.00
2018-09-10T14:33:58.591Z,38.76
2018-09-10T14:36:29.397Z,38.54
2018-09-10T14:39:00.329Z,37.82
2018-09-10T14:41:31.008Z,37.73
2018-09-10T14:44:02.410Z,37.30
2018-09-10T14:46:34.793Z,37.04
2018-09-10T14:49:05.689Z,36.37
2018-09-10T14:51:36.635Z,35.97
2018-09-10T14:54:07.428Z,35.74
2018-09-10T14:56:38.705Z,35.60
2018-09-10T14:59:09.525Z,35.65
2018-09-10T15:01:40.926Z,35.70
2018-09-10T15:04:11.911Z,35.69
2018-09-10T15:06:42.844Z,35.33
2018-09-10T15:09:13.578Z,35.03
2018-09-10T15:11:44.972Z,34.85
2018-09-10T15:14:15.627Z,34.58
2018-09-10T15:16:46.744Z,34.43
2018-09-10T15:19:18.356Z,34.35
2018-09-10T15:21:50.247Z,34.36
2018-09-10T15:24:23.544Z,34.31
2018-09-10T15:26:54.453Z,34.11
2018-09-10T15:29:25.924Z,33.90
2018-09-10T15:31:57.860Z,33.59
2018-09-10T15:34:33.172Z,33.39
2018-09-10T15:37:04.191Z,33.15
2018-09-10T15:39:34.906Z,32.93
2018-09-10T15:42:05.804Z,32.72
2018-09-10T15:44:36.536Z,32.56
2018-09-10T15:47:07.947Z,32.51
2018-09-10T15:49:38.761Z,32.51
2018-09-10T15:52:10.123Z,32.62
2018-09-10T15:54:41.126Z,32.74
2018-09-10T15:57:12.117Z,32.77
2018-09-10T15:59:43.759Z,32.89
2018-09-10T16:02:16.220Z,32.93
2018-09-10T16:04:48.736Z,32.81
2018-09-10T16:07:21.431Z,32.72
2018-09-10T16:09:53.616Z,32.59
2018-09-10T16:12:25.362Z,32.43
2018-09-10T16:14:59.600Z,32.23
2018-09-10T16:17:31.277Z,31.92
2018-09-10T16:20:03.773Z,31.80
2018-09-10T16:22:35.433Z,31.40
2018-09-10T16:25:08.351Z,31.19
2018-09-10T16:27:39.692Z,30.99
2018-09-10T16:30:12.297Z,30.76
2018-09-10T16:32:44.029Z,30.49
2018-09-10T16:35:15.623Z,30.23
2018-09-10T16:37:47.687Z,29.97
2018-09-10T16:40:19.374Z,29.59
2018-09-10T16:42:52.069Z,29.25
2018-09-10T16:45:24.662Z,28.75
2018-09-10T16:47:56.399Z,28.38
2018-09-10T16:50:28.299Z,28.15
2018-09-10T16:53:01.007Z,27.78
2018-09-10T16:55:33.189Z,27.41
2018-09-10T16:58:05.782Z,27.09
2018-09-10T17:00:37.745Z,26.82
2018-09-10T17:03:09.610Z,26.53
2018-09-10T17:05:41.399Z,26.24
2018-09-10T17:08:14.124Z,25.87
2018-09-10T17:10:45.769Z,25.60
2018-09-10T17:13:17.417Z,25.38
2018-09-10T17:15:49.727Z,25.20
2018-09-10T17:18:22.603Z,24.99
2018-09-10T17:20:55.010Z,24.89
2018-09-10T17:23:28.423Z,24.77
2018-09-10T17:26:01.479Z,24.62
2018-09-10T17:28:34.591Z,24.43
2018-09-10T17:31:06.708Z,24.28
2018-09-10T17:33:39.083Z,24.22
2018-09-10T17:36:10.905Z,24.20
2018-09-10T17:38:45.118Z,24.14
2018-09-10T17:41:27.849Z,24.09
2018-09-10T17:44:00.024Z,24.07
2018-09-10T17:46:32.348Z,23.93
2018-09-10T17:49:04.849Z,23.84
2018-09-10T17:51:37.123Z,23.67
2018-09-10T17:54:09.285Z,23.53
2018-09-10T17:56:41.487Z,23.47
2018-09-10T17:59:15.829Z,23.44
2018-09-10T18:01:47.730Z,23.38
2018-09-10T18:04:22.841Z,23.26
2018-09-10T18:06:55.136Z,23.21
2018-09-10T18:09:27.088Z,23.17
2018-09-10T18:11:58.864Z,23.03
2018-09-10T18:14:30.716Z,22.91
2018-09-10T18:17:03.452Z,22.77
2018-09-10T18:19:36.801Z,22.70
2018-09-10T18:22:08.706Z,22.54
2018-09-10T18:24:43.607Z,22.49
2018-09-10T18:27:15.451Z,22.43
2018-09-10T18:29:48.523Z,22.33
2018-09-10T18:32:22.016Z,22.33
2018-09-10T18:34:53.715Z,22.32
2018-09-10T18:37:26.239Z,22.24
2018-09-10T18:39:58.066Z,22.18
2018-09-10T18:42:30.063Z,22.07
2018-09-10T18:45:04.096Z,21.85
2018-09-10T18:47:37.462Z,21.70
2018-09-10T18:50:09.604Z,21.50
2018-09-10T18:52:42.183Z,21.44
2018-09-10T18:55:15.288Z,21.41
2018-09-10T18:57:47.996Z,21.39
2018-09-10T19:00:21.961Z,21.36
2018-09-10T19:02:56.627Z,21.36
2018-09-10T19:05:29.192Z,21.28
2018-09-10T19:08:01.514Z,21.18
2018-09-10T19:10:38.833Z,21.16
2018-09-10T19:13:13.031Z,21.15
2018-09-10T19:15:46.102Z,21.09
2018-09-10T19:18:20.541Z,21.06
2018-09-10T19:21:03.329Z,20.97
2018-09-10T19:23:38.401Z,20.93
2018-09-10T19:26:12.610Z,20.82
2018-09-10T19:28:50.582Z,20.79
2018-09-10T19:31:24.603Z,20.73
2018-09-10T19:33:58.100Z,20.70
2018-09-10T19:36:30.468Z,20.63
2018-09-10T19:39:04.389Z,20.56
2018-09-10T19:41:36.561Z,20.49
2018-09-10T19:44:08.607Z,20.49
2018-09-10T19:46:43.400Z,20.38
2018-09-10T19:49:16.537Z,20.28
2018-09-10T19:51:51.060Z,20.23
2018-09-10T19:54:25.259Z,20.17
2018-09-10T19:56:59.868Z,20.15
2018-09-10T19:59:32.311Z,20.15
2018-09-10T20:02:04.217Z,20.15
2018-09-10T20:04:36.636Z,20.07
2018-09-10T20:07:08.990Z,19.99
2018-09-10T20:09:41.420Z,19.92
2018-09-10T20:12:13.317Z,19.83
2018-09-10T20:14:46.043Z,19.76
2018-09-10T20:17:17.735Z,19.70
2018-09-10T20:19:49.805Z,19.64
2018-09-10T20:22:22.732Z,19.57
2018-09-10T20:24:54.908Z,19.54
2018-09-10T20:27:27.961Z,19.54
2018-09-10T20:30:00.906Z,19.47
2018-09-10T20:32:33.400Z,19.42
2018-09-10T20:35:05.528Z,19.41
2018-09-10T20:37:37.258Z,19.38
2018-09-10T20:40:09.224Z,19.39
2018-09-10T20:42:41.352Z,19.37
2018-09-10T20:45:13.458Z,19.38
2018-09-10T20:47:46.088Z,19.34
2018-09-10T20:50:18.206Z,19.26
2018-09-10T20:52:50.954Z,19.24
2018-09-10T20:55:22.880Z,19.16
2018-09-10T20:57:55.855Z,19.10
2018-09-10T21:00:31.702Z,19.02
2018-09-10T21:03:03.935Z,18.96
2018-09-10T21:05:37.288Z,18.92
2018-09-10T21:08:11.500Z,18.91
2018-09-10T21:10:43.967Z,18.86
2018-09-10T21:13:15.479Z,18.80
2018-09-10T21:15:47.468Z,18.81
2018-09-10T21:18:20.472Z,18.68
2018-09-10T21:20:51.689Z,18.65
2018-09-10T21:23:23.657Z,18.60
2018-09-10T21:25:55.085Z,18.55
2018-09-10T21:28:26.085Z,18.48
2018-09-10T21:30:57.004Z,18.39
2018-09-10T21:33:27.653Z,18.40
2018-09-10T21:35:58.290Z,18.42
2018-09-10T21:38:29.862Z,18.37
2018-09-10T21:41:01.149Z,18.33
2018-09-10T21:43:32.015Z,18.25
2018-09-10T21:46:02.681Z,18.14
2018-09-10T21:48:33.587Z,17.96
2018-09-10T21:51:04.293Z,17.80
2018-09-10T21:53:35.580Z,17.73
2018-09-10T21:56:06.636Z,17.71
2018-09-10T21:58:37.501Z,17.68
2018-09-10T22:01:08.341Z,17.65
2018-09-10T22:03:39.578Z,17.64
2018-09-10T22:06:10.751Z,17.64
2018-09-10T22:08:41.399Z,17.65
2018-09-10T22:11:12.162Z,17.64
2018-09-10T22:13:42.933Z,17.66
2018-09-10T22:16:13.771Z,17.68
2018-09-10T22:18:44.448Z,17.67
2018-09-10T22:21:15.076Z,17.66
2018-09-10T22:23:46.051Z,17.68
2018-09-10T22:26:17.297Z,17.69
2018-09-10T22:28:47.963Z,17.67
2018-09-10T22:31:18.672Z,17.66
2018-09-10T22:33:49.593Z,17.59
2018-09-10T22:36:20.222Z,17.53
2018-09-10T22:38:50.849Z,17.51
2018-09-10T22:41:21.480Z,17.47
2018-09-10T22:43:52.000Z,17.43
2018-09-10T22:46:22.816Z,17.35
2018-09-10T22:48:53.376Z,17.26
2018-09-10T22:51:23.977Z,17.19
2018-09-10T22:53:54.974Z,17.12
2018-09-10T22:56:25.578Z,17.11
2018-09-10T22:58:56.384Z,17.11
2018-09-10T23:01:27.058Z,17.00
2018-09-10T23:03:57.652Z,16.93
2018-09-10T23:06:28.317Z,16.88
2018-09-10T23:08:58.782Z,16.88
2018-09-10T23:11:29.413Z,16.88
2018-09-10T23:13:59.930Z,16.87
2018-09-10T23:16:30.626Z,16.85
2018-09-10T23:19:01.185Z,16.84
2018-09-10T23:21:31.765Z,16.79
2018-09-10T23:24:02.532Z,16.72
2018-09-10T23:26:32.970Z,16.70
2018-09-10T23:29:03.526Z,16.67
2018-09-10T23:31:34.117Z,16.59
2018-09-10T23:34:04.703Z,16.46
2018-09-10T23:36:35.257Z,16.39
2018-09-10T23:39:08.153Z,16.34
2018-09-10T23:41:38.799Z,16.28
2018-09-10T23:44:09.446Z,16.28
2018-09-10T23:46:39.840Z,16.29
2018-09-10T23:49:10.518Z,16.33
2018-09-10T23:51:41.132Z,16.31
2018-09-10T23:54:11.743Z,16.25
2018-09-10T23:56:42.186Z,16.20
2018-09-10T23:59:12.847Z,16.14
